Time;durP1;ratioP1;P1;durP2;ratioP2;P2;SDS_P1;SDS_P2;PMS_P1;PMS_P2;Temp;Humidity;BMP_temperature;BMP_pressure;BME280_temperature;BME280_humidity;BME280_pressure;Samples;Min_cycle;Max_cycle;Signal;HPM_P1;HPM_P2
2023/03/12 00:00:18;;;;;;;10.03;6.43;;;1.70;1.00;;;;;;5062052;28;20207;-53
2023/03/12 00:02:44;;;;;;;7.93;5.60;;;1.80;1.00;;;;;;5059182;28;20204;-54
2023/03/12 00:05:10;;;;;;;6.23;5.23;;;1.80;1.00;;;;;;5059482;28;20916;-54
2023/03/12 00:07:35;;;;;;;4.97;4.40;;;1.90;1.00;;;;;;5061405;28;20185;-55
2023/03/12 00:10:03;;;;;;;5.37;3.50;;;1.80;1.00;;;;;;5056282;28;20214;-54
2023/03/12 00:12:29;;;;;;;6.10;3.80;;;1.90;1.00;;;;;;5066187;28;20289;-53
2023/03/12 00:14:54;;;;;;;6.27;2.90;;;1.90;1.00;;;;;;5065243;28;20515;-55
2023/03/12 00:17:20;;;;;;;7.27;4.50;;;1.90;1.00;;;;;;5067799;28;20333;-55
2023/03/12 00:19:49;;;;;;;3.87;3.13;;;1.90;1.00;;;;;;5059571;28;20174;-54
2023/03/12 00:22:15;;;;;;;6.33;3.40;;;1.90;1.00;;;;;;5066082;28;20187;-54
2023/03/12 00:24:41;;;;;;;5.53;3.30;;;2.00;1.00;;;;;;5052146;28;20442;-53
2023/03/12 00:27:07;;;;;;;6.50;4.07;;;1.90;1.00;;;;;;5058514;28;20471;-54
2023/03/12 00:29:32;;;;;;;3.53;2.87;;;1.90;1.00;;;;;;5061107;28;20261;-54
2023/03/12 00:31:58;;;;;;;4.53;3.43;;;1.90;1.00;;;;;;5057794;28;20216;-54
2023/03/12 00:34:23;;;;;;;7.30;3.00;;;1.90;1.00;;;;;;5057539;28;20278;-54
2023/03/12 00:36:49;;;;;;;6.60;3.17;;;1.90;1.00;;;;;;5049641;28;20274;-54
2023/03/12 00:39:15;;;;;;;4.77;4.10;;;2.00;1.00;;;;;;5055866;28;20520;-52
2023/03/12 00:41:40;;;;;;;6.37;3.23;;;2.00;1.00;;;;;;5048307;28;20598;-53
2023/03/12 00:44:06;;;;;;;9.47;3.60;;;2.00;1.00;;;;;;5049212;28;20183;-56
2023/03/12 00:46:32;;;;;;;3.73;2.50;;;2.00;1.00;;;;;;5056801;28;20226;-55
2023/03/12 00:48:57;;;;;;;5.83;3.83;;;2.00;1.00;;;;;;5057111;28;20293;-56
2023/03/12 00:51:23;;;;;;;5.00;4.13;;;2.00;1.00;;;;;;5050371;28;20208;-56
2023/03/12 00:53:48;;;;;;;6.10;3.73;;;1.90;1.00;;;;;;5051351;28;20311;-54
2023/03/12 00:56:14;;;;;;;4.80;3.50;;;1.80;1.00;;;;;;5054274;28;20196;-53
2023/03/12 00:58:41;;;;;;;6.43;2.67;;;1.80;1.00;;;;;;5056305;28;20187;-55
2023/03/12 01:01:07;;;;;;;3.80;2.70;;;1.90;1.00;;;;;;5050950;28;20675;-52
2023/03/12 01:03:32;;;;;;;8.03;4.30;;;1.90;1.00;;;;;;5055162;28;20531;-52
2023/03/12 01:05:58;;;;;;;4.53;3.17;;;2.20;1.00;;;;;;5056205;28;20277;-54
2023/03/12 01:08:24;;;;;;;7.63;3.87;;;1.80;1.00;;;;;;5050706;28;20696;-55
2023/03/12 01:10:50;;;;;;;5.57;3.80;;;1.80;1.00;;;;;;5050459;28;20219;-53
2023/03/12 01:13:16;;;;;;;6.23;3.53;;;1.80;1.00;;;;;;5057490;28;20452;-53
2023/03/12 01:15:41;;;;;;;3.80;3.10;;;1.80;1.00;;;;;;5056413;28;20454;-55
2023/03/12 01:18:07;;;;;;;3.70;3.30;;;1.80;1.00;;;;;;5056937;28;20429;-54
2023/03/12 01:20:34;;;;;;;7.93;3.80;;;1.80;1.00;;;;;;5052880;28;20241;-54
2023/03/12 01:23:00;;;;;;;4.10;3.63;;;1.70;1.00;;;;;;5054251;28;20186;-53
2023/03/12 01:25:26;;;;;;;3.80;3.07;;;1.60;1.00;;;;;;5049800;28;21080;-54
2023/03/12 01:27:52;;;;;;;7.87;4.47;;;1.70;1.00;;;;;;5057075;28;20266;-54
2023/03/12 01:30:17;;;;;;;8.40;4.47;;;1.60;1.00;;;;;;5050804;28;20204;-54
2023/03/12 01:32:43;;;;;;;4.80;3.53;;;1.60;1.00;;;;;;5057946;28;20177;-53
2023/03/12 01:35:09;;;;;;;4.00;3.53;;;1.60;1.00;;;;;;5055199;28;20301;-53
2023/03/12 01:37:35;;;;;;;3.63;2.93;;;1.60;1.00;;;;;;5057084;28;20597;-52
2023/03/12 01:40:01;;;;;;;4.77;2.50;;;1.70;1.00;;;;;;5049457;28;20466;-54
2023/03/12 01:42:27;;;;;;;9.17;3.00;;;1.60;1.00;;;;;;5051366;28;20188;-53
2023/03/12 01:44:58;;;;;;;5.67;3.17;;;1.60;1.00;;;;;;5060435;28;20436;-53
2023/03/12 01:47:25;;;;;;;7.50;3.90;;;1.70;1.00;;;;;;5054538;28;20490;-53
2023/03/12 01:49:53;;;;;;;4.40;2.77;;;1.60;1.00;;;;;;5047084;28;20446;-53
2023/03/12 01:52:32;;;;;;;3.27;2.70;;;1.50;1.00;;;;;;5055546;28;20990;-54
2023/03/12 01:55:15;;;;;;;4.40;3.40;;;1.60;1.00;;;;;;5065712;28;20965;-55
2023/03/12 01:57:47;;;;;;;4.70;3.20;;;1.60;1.00;;;;;;5055152;28;20430;-54
2023/03/12 02:00:22;;;;;;;9.23;3.57;;;1.60;1.00;;;;;;5060916;28;20494;-52
2023/03/12 02:02:49;;;;;;;6.00;3.30;;;1.60;1.00;;;;;;5059602;28;20426;-53
2023/03/12 02:05:27;;;;;;;3.77;2.40;;;1.60;1.00;;;;;;5059399;28;21584;-54
2023/03/12 02:07:53;;;;;;;6.43;2.17;;;1.60;1.00;;;;;;5050872;28;20474;-55
2023/03/12 02:10:20;;;;;;;3.50;3.07;;;1.60;1.00;;;;;;5054729;28;20564;-54
2023/03/12 02:12:46;;;;;;;6.00;3.00;;;1.60;1.00;;;;;;5052079;28;20937;-53
2023/03/12 02:15:12;;;;;;;2.97;2.77;;;1.60;1.00;;;;;;5055578;28;20465;-54
2023/03/12 02:17:39;;;;;;;7.47;3.53;;;1.60;1.00;;;;;;5042592;28;20694;-55
2023/03/12 02:20:43;;;;;;;3.90;3.17;;;1.50;1.00;;;;;;5055952;28;20515;-54
2023/03/12 02:23:24;;;;;;;5.77;3.27;;;1.50;1.00;;;;;;5033383;28;20455;-53
2023/03/12 02:25:51;;;;;;;7.13;3.00;;;1.40;1.00;;;;;;5045153;28;20439;-54
2023/03/12 02:28:21;;;;;;;5.87;3.23;;;1.50;1.00;;;;;;5049389;28;20441;-55
2023/03/12 02:30:49;;;;;;;5.07;2.43;;;1.40;1.00;;;;;;5056105;28;21330;-54
2023/03/12 02:33:15;;;;;;;3.97;3.30;;;1.40;1.00;;;;;;5057138;28;20438;-53
2023/03/12 02:35:41;;;;;;;3.33;2.83;;;1.30;1.00;;;;;;5052652;28;20454;-53
2023/03/12 02:38:38;;;;;;;4.20;2.60;;;1.30;1.00;;;;;;5056551;28;20445;-55
2023/03/12 02:41:16;;;;;;;3.30;2.87;;;1.30;1.00;;;;;;5059366;28;20532;-54
2023/03/12 02:43:46;;;;;;;3.30;2.77;;;1.20;1.00;;;;;;5054150;28;20446;-53
2023/03/12 02:46:13;;;;;;;3.30;2.60;;;1.20;1.00;;;;;;5045405;28;20824;-52
2023/03/12 02:48:39;;;;;;;7.10;3.47;;;1.20;1.00;;;;;;5046168;28;20462;-53
2023/03/12 02:51:04;;;;;;;6.03;2.80;;;1.20;1.00;;;;;;5052992;28;20483;-54
2023/03/12 02:53:30;;;;;;;4.90;2.90;;;1.20;1.00;;;;;;5057635;28;20310;-57
2023/03/12 02:55:56;;;;;;;4.00;2.90;;;1.10;1.00;;;;;;5048538;28;20203;-53
2023/03/12 02:58:21;;;;;;;3.37;2.40;;;1.20;1.00;;;;;;5046124;28;20258;-53
2023/03/12 03:00:47;;;;;;;4.13;2.00;;;1.30;1.00;;;;;;5047032;28;20202;-54
2023/03/12 03:03:13;;;;;;;3.70;2.20;;;1.30;1.00;;;;;;5047848;28;20187;-52
2023/03/12 03:05:39;;;;;;;3.33;2.57;;;1.30;1.00;;;;;;5045366;28;20529;-53
2023/03/12 03:08:05;;;;;;;3.53;1.93;;;1.30;1.00;;;;;;5050296;28;20561;-55
2023/03/12 03:10:31;;;;;;;4.93;2.40;;;1.40;1.00;;;;;;5057855;28;20278;-53
2023/03/12 03:12:57;;;;;;;5.20;2.10;;;1.30;1.00;;;;;;5057642;28;20445;-54
2023/03/12 03:15:22;;;;;;;3.17;2.20;;;1.30;1.00;;;;;;5056863;28;20190;-54
2023/03/12 03:17:48;;;;;;;4.40;2.47;;;1.70;1.00;;;;;;5045085;28;20448;-54
2023/03/12 03:20:14;;;;;;;6.80;2.80;;;1.40;1.00;;;;;;5050423;28;20252;-53
2023/03/12 03:22:39;;;;;;;2.77;1.87;;;1.40;1.00;;;;;;5056287;28;20200;-55
2023/03/12 03:25:07;;;;;;;3.40;2.30;;;1.50;1.00;;;;;;5049974;28;20200;-54
2023/03/12 03:27:33;;;;;;;3.67;2.00;;;1.50;1.00;;;;;;5052540;28;20642;-55
2023/03/12 03:29:59;;;;;;;3.53;2.70;;;1.50;1.00;;;;;;5053610;28;20479;-54
2023/03/12 03:32:24;;;;;;;3.87;2.30;;;1.50;1.00;;;;;;5049258;28;20220;-54
2023/03/12 03:34:50;;;;;;;4.83;2.10;;;1.40;1.00;;;;;;5059199;28;20244;-52
2023/03/12 03:37:15;;;;;;;4.07;2.10;;;1.30;1.00;;;;;;5054648;28;20222;-53
2023/03/12 03:39:41;;;;;;;4.10;2.20;;;1.40;1.00;;;;;;5054340;28;20198;-53
2023/03/12 03:42:07;;;;;;;3.87;1.70;;;1.30;1.00;;;;;;5062224;28;20317;-52
2023/03/12 03:44:32;;;;;;;10.30;2.63;;;1.40;1.00;;;;;;5063521;28;20191;-54
2023/03/12 03:46:58;;;;;;;3.70;2.07;;;1.50;1.00;;;;;;5052880;28;20541;-55
2023/03/12 03:49:23;;;;;;;5.50;2.07;;;1.80;1.00;;;;;;5058037;28;20215;-54
2023/03/12 03:51:50;;;;;;;2.60;1.73;;;1.50;1.00;;;;;;5050330;28;20214;-54
2023/03/12 03:54:17;;;;;;;3.50;2.00;;;1.50;1.00;;;;;;5057368;28;20243;-55
2023/03/12 03:56:43;;;;;;;4.00;1.87;;;1.40;1.00;;;;;;5052734;28;20456;-53
2023/03/12 03:59:09;;;;;;;2.63;1.73;;;1.40;1.00;;;;;;5065428;28;20452;-55
2023/03/12 04:01:35;;;;;;;5.23;1.80;;;1.50;1.00;;;;;;5052211;28;20197;-52
2023/03/12 04:04:02;;;;;;;2.37;2.07;;;1.50;1.00;;;;;;5052164;28;20442;-54
2023/03/12 04:06:28;;;;;;;3.07;1.90;;;1.50;1.00;;;;;;5052057;28;20520;-53
2023/03/12 04:08:55;;;;;;;2.60;1.87;;;1.50;1.00;;;;;;5060370;28;21138;-55
2023/03/12 04:11:21;;;;;;;3.60;2.63;;;1.40;1.00;;;;;;5058887;28;21249;-53
2023/03/12 04:13:47;;;;;;;3.97;2.00;;;1.40;1.00;;;;;;5062192;28;20454;-53
2023/03/12 04:16:14;;;;;;;1.70;1.60;;;1.30;1.00;;;;;;5051463;28;20453;-54
2023/03/12 04:18:41;;;;;;;6.13;2.00;;;1.40;1.00;;;;;;5048030;28;20539;-54
2023/03/12 04:21:08;;;;;;;2.13;1.80;;;1.30;1.00;;;;;;5052191;28;20446;-52
2023/03/12 04:23:35;;;;;;;3.47;2.00;;;1.40;1.00;;;;;;5044020;28;20446;-53
2023/03/12 04:26:01;;;;;;;4.50;1.87;;;1.50;1.00;;;;;;5055048;28;20460;-54
2023/03/12 04:28:26;;;;;;;5.23;2.33;;;1.50;1.00;;;;;;5057986;28;20498;-52
2023/03/12 04:30:58;;;;;;;4.90;2.03;;;1.30;1.00;;;;;;5044240;28;20214;-55
2023/03/12 04:33:25;;;;;;;2.80;1.80;;;1.30;1.00;;;;;;5048899;28;20598;-53
2023/03/12 04:35:52;;;;;;;3.70;2.00;;;1.30;1.00;;;;;;5054792;28;20452;-55
2023/03/12 04:38:19;;;;;;;5.00;1.70;;;1.30;1.00;;;;;;5053381;28;20448;-52
2023/03/12 04:40:44;;;;;;;3.10;1.77;;;1.20;1.00;;;;;;5050332;28;20452;-54
2023/03/12 04:43:10;;;;;;;1.53;1.40;;;0.90;1.00;;;;;;5052189;28;20446;-53
2023/03/12 04:45:38;;;;;;;4.53;1.60;;;1.20;1.00;;;;;;5054814;28;20643;-55
2023/03/12 04:48:04;;;;;;;2.17;1.40;;;1.20;1.00;;;;;;5044745;28;20226;-53
2023/03/12 04:50:30;;;;;;;2.90;1.83;;;1.20;1.00;;;;;;5044159;28;20477;-54
2023/03/12 04:52:55;;;;;;;2.50;1.90;;;1.20;1.00;;;;;;5041179;28;20440;-53
2023/03/12 04:55:22;;;;;;;5.23;1.60;;;1.30;1.00;;;;;;5047834;28;20197;-52
2023/03/12 04:57:47;;;;;;;1.90;1.70;;;1.30;1.00;;;;;;5045300;28;20810;-54
2023/03/12 05:00:13;;;;;;;3.33;1.70;;;1.30;1.00;;;;;;5036815;28;20489;-53
2023/03/12 05:02:40;;;;;;;4.37;1.93;;;1.30;1.00;;;;;;5043811;28;20187;-53
2023/03/12 05:05:06;;;;;;;7.20;1.93;;;1.20;1.00;;;;;;5042675;28;20484;-56
2023/03/12 05:07:32;;;;;;;3.20;1.63;;;1.20;1.00;;;;;;5045743;28;20460;-53
2023/03/12 05:09:58;;;;;;;2.63;1.83;;;1.20;1.00;;;;;;5047663;28;20812;-56
2023/03/12 05:12:24;;;;;;;4.40;1.90;;;1.20;1.00;;;;;;5042634;28;20483;-54
2023/03/12 05:14:49;;;;;;;2.07;1.60;;;1.20;1.00;;;;;;5043137;28;20222;-54
2023/03/12 05:17:15;;;;;;;1.93;1.33;;;1.30;1.00;;;;;;5050906;28;20187;-53
2023/03/12 05:19:41;;;;;;;1.50;1.40;;;1.30;1.00;;;;;;5048501;28;20196;-55
2023/03/12 05:22:06;;;;;;;2.87;1.80;;;1.30;1.00;;;;;;5056614;28;20201;-54
2023/03/12 05:24:32;;;;;;;3.77;1.63;;;1.30;1.00;;;;;;5044467;28;20225;-53
2023/03/12 05:26:57;;;;;;;3.40;1.60;;;1.40;1.00;;;;;;5055357;28;20202;-54
2023/03/12 05:29:23;;;;;;;2.07;1.30;;;1.40;1.00;;;;;;5054542;28;20194;-54
2023/03/12 05:31:49;;;;;;;2.77;1.60;;;1.40;1.00;;;;;;5052504;28;20214;-52
2023/03/12 05:34:15;;;;;;;3.33;1.87;;;1.60;1.00;;;;;;5048302;28;20195;-53
2023/03/12 05:36:41;;;;;;;3.37;1.57;;;1.70;1.00;;;;;;5045826;28;20457;-54
2023/03/12 05:39:07;;;;;;;5.00;1.97;;;1.60;1.00;;;;;;5055450;28;20499;-54
2023/03/12 05:41:33;;;;;;;1.80;1.50;;;1.60;1.00;;;;;;5046262;28;20807;-53
2023/03/12 05:43:58;;;;;;;5.37;1.33;;;1.50;1.00;;;;;;5052092;28;20190;-53
2023/03/12 05:46:26;;;;;;;2.70;1.83;;;1.50;1.00;;;;;;5049066;28;20959;-56
2023/03/12 05:48:52;;;;;;;4.17;1.70;;;1.50;1.00;;;;;;5053490;28;20676;-53
2023/03/12 05:51:18;;;;;;;2.10;1.77;;;1.50;1.00;;;;;;5048137;28;20518;-54
2023/03/12 05:53:44;;;;;;;3.70;1.70;;;1.40;1.00;;;;;;5047302;28;20505;-54
2023/03/12 05:56:14;;;;;;;1.80;1.23;;;1.50;1.00;;;;;;5053835;28;20456;-54
2023/03/12 05:58:40;;;;;;;3.13;1.77;;;1.50;1.00;;;;;;5050128;28;20180;-52
2023/03/12 06:01:21;;;;;;;2.60;1.90;;;1.40;1.00;;;;;;5048927;28;20445;-53
2023/03/12 06:03:47;;;;;;;1.80;1.70;;;1.50;1.00;;;;;;5050120;28;20203;-53
2023/03/12 06:06:13;;;;;;;3.03;1.37;;;1.50;1.00;;;;;;5045850;28;20493;-52
2023/03/12 06:08:40;;;;;;;7.20;2.00;;;1.50;1.00;;;;;;5051357;28;20190;-56
2023/03/12 06:11:05;;;;;;;3.67;1.67;;;1.60;1.00;;;;;;5050568;28;20550;-54
2023/03/12 06:13:31;;;;;;;7.80;1.90;;;1.60;1.00;;;;;;5048917;28;20458;-54
2023/03/12 06:16:03;;;;;;;1.63;1.47;;;1.60;1.00;;;;;;5052774;28;20187;-53
2023/03/12 06:18:29;;;;;;;4.23;1.63;;;1.60;1.00;;;;;;5059140;28;20570;-55
2023/03/12 06:20:55;;;;;;;5.20;1.77;;;1.70;1.00;;;;;;5050204;28;20561;-54
2023/03/12 06:23:20;;;;;;;2.83;1.60;;;1.70;1.00;;;;;;5058775;28;20550;-53
2023/03/12 06:25:46;;;;;;;4.13;1.90;;;1.70;1.00;;;;;;5063575;28;20185;-54
2023/03/12 06:28:11;;;;;;;4.27;1.80;;;1.70;1.00;;;;;;5061392;28;20243;-54
2023/03/12 06:30:37;;;;;;;4.67;2.17;;;1.70;1.00;;;;;;5055175;28;20666;-55
2023/03/12 06:33:03;;;;;;;2.83;1.87;;;1.80;1.00;;;;;;5058901;28;20180;-53
2023/03/12 06:35:29;;;;;;;4.77;2.30;;;1.80;1.00;;;;;;5059013;28;20994;-53
2023/03/12 06:37:54;;;;;;;3.30;1.60;;;1.90;1.00;;;;;;5060699;28;20555;-55
2023/03/12 06:40:20;;;;;;;2.90;1.77;;;2.00;1.00;;;;;;5060929;28;20192;-53
2023/03/12 06:42:46;;;;;;;2.80;1.57;;;2.10;1.00;;;;;;5065426;28;20195;-55
2023/03/12 06:45:11;;;;;;;2.60;1.60;;;2.30;1.00;;;;;;5052712;28;20463;-53
2023/03/12 06:47:37;;;;;;;1.90;1.20;;;2.40;1.00;;;;;;5047504;28;20219;-54
2023/03/12 06:50:03;;;;;;;1.47;1.37;;;2.40;1.00;;;;;;5046386;28;20214;-55
2023/03/12 06:52:29;;;;;;;2.10;1.23;;;2.50;1.00;;;;;;5045419;28;20184;-54
2023/03/12 06:54:54;;;;;;;2.43;2.23;;;2.60;1.00;;;;;;5044932;28;20564;-55
2023/03/12 06:57:20;;;;;;;2.27;2.07;;;2.70;1.00;;;;;;5049055;28;20212;-55
2023/03/12 06:59:45;;;;;;;2.67;1.67;;;2.90;1.00;;;;;;5050069;28;20212;-54
2023/03/12 07:02:11;;;;;;;3.97;1.40;;;2.90;1.00;;;;;;5045211;28;20223;-54
2023/03/12 07:04:38;;;;;;;1.97;1.63;;;3.00;1.00;;;;;;5046270;28;20292;-55
2023/03/12 07:07:04;;;;;;;2.90;1.43;;;3.10;1.00;;;;;;5046460;28;20455;-53
2023/03/12 07:09:29;;;;;;;3.37;1.93;;;3.20;1.00;;;;;;5047156;28;20250;-53
2023/03/12 07:11:55;;;;;;;3.40;1.60;;;3.20;1.00;;;;;;5045917;28;20223;-53
2023/03/12 07:14:21;;;;;;;2.47;1.60;;;3.20;1.00;;;;;;5046101;28;20199;-59
2023/03/12 07:16:47;;;;;;;3.27;1.40;;;3.30;1.00;;;;;;5048136;28;20245;-54
2023/03/12 07:19:12;;;;;;;4.23;1.87;;;3.40;1.00;;;;;;5057402;28;20265;-53
2023/03/12 07:21:38;;;;;;;5.67;1.93;;;3.50;1.00;;;;;;5062822;28;20459;-54
2023/03/12 07:24:07;;;;;;;2.23;2.00;;;3.70;1.00;;;;;;5052991;28;20215;-53
2023/03/12 07:26:34;;;;;;;3.90;1.90;;;4.00;1.00;;;;;;5050333;28;20445;-53
2023/03/12 07:29:00;;;;;;;3.30;1.70;;;4.30;1.00;;;;;;5055161;28;20438;-55
2023/03/12 07:31:25;;;;;;;1.47;1.30;;;4.60;1.00;;;;;;5061359;28;20466;-58
2023/03/12 07:33:51;;;;;;;3.80;1.90;;;4.70;1.00;;;;;;5053825;28;20812;-54
2023/03/12 07:36:17;;;;;;;3.07;1.90;;;4.70;1.00;;;;;;5049959;28;20192;-54
2023/03/12 07:38:43;;;;;;;2.33;1.40;;;4.70;1.00;;;;;;5042992;28;20220;-54
2023/03/12 07:41:08;;;;;;;2.63;1.40;;;4.80;1.00;;;;;;5051145;28;20443;-53
2023/03/12 07:43:34;;;;;;;1.40;1.30;;;4.80;1.00;;;;;;5051774;28;20219;-55
2023/03/12 07:45:59;;;;;;;2.87;1.30;;;5.00;1.00;;;;;;5053243;28;20650;-54
2023/03/12 07:48:25;;;;;;;5.77;2.10;;;5.20;1.00;;;;;;5050448;28;20206;-55
2023/03/12 07:50:51;;;;;;;4.23;1.50;;;5.40;1.00;;;;;;5053829;28;20207;-54
2023/03/12 07:53:16;;;;;;;1.30;1.20;;;5.70;1.00;;;;;;5049942;28;20223;-53
2023/03/12 07:55:44;;;;;;;3.60;1.67;;;5.80;1.00;;;;;;5055122;28;20201;-53
2023/03/12 07:58:11;;;;;;;1.50;1.40;;;5.90;1.00;;;;;;5057771;28;20642;-55
2023/03/12 08:00:37;;;;;;;3.03;1.97;;;6.00;1.00;;;;;;5056814;28;20434;-54
2023/03/12 08:03:03;;;;;;;3.40;1.97;;;6.20;1.00;;;;;;5058738;28;20508;-54
2023/03/12 08:05:29;;;;;;;3.23;2.13;;;6.40;1.00;;;;;;5049975;28;20180;-53
2023/03/12 08:07:55;;;;;;;3.50;2.20;;;6.30;1.00;;;;;;5049995;28;21160;-54
2023/03/12 08:10:21;;;;;;;2.83;2.00;;;6.30;1.00;;;;;;5044434;28;20209;-53
2023/03/12 08:12:47;;;;;;;3.27;2.27;;;6.30;1.00;;;;;;5051874;28;20233;-53
2023/03/12 08:15:14;;;;;;;3.90;2.50;;;6.30;1.00;;;;;;5067316;28;20441;-56
2023/03/12 08:17:40;;;;;;;2.40;2.00;;;6.30;1.00;;;;;;5058122;28;20528;-54
2023/03/12 08:20:08;;;;;;;3.20;2.20;;;6.20;1.00;;;;;;5052760;28;21002;-54
2023/03/12 08:22:35;;;;;;;4.03;2.83;;;6.10;1.00;;;;;;5047438;28;20450;-53
2023/03/12 08:25:01;;;;;;;4.83;2.80;;;6.10;1.00;;;;;;5045719;28;20477;-56
2023/03/12 08:27:27;;;;;;;3.60;2.20;;;6.10;1.00;;;;;;5050049;28;20470;-55
2023/03/12 08:29:53;;;;;;;4.10;2.87;;;6.10;1.00;;;;;;5049458;28;20844;-55
2023/03/12 08:32:18;;;;;;;4.07;2.83;;;6.20;1.00;;;;;;5049246;28;20231;-53
2023/03/12 08:34:44;;;;;;;4.23;2.50;;;6.40;1.00;;;;;;5053139;28;20185;-55
2023/03/12 08:37:09;;;;;;;6.77;2.33;;;6.50;1.00;;;;;;5048375;28;20663;-54
2023/03/12 08:39:35;;;;;;;2.80;2.10;;;6.60;1.00;;;;;;5044858;28;20243;-53
2023/03/12 08:42:01;;;;;;;3.60;2.50;;;6.70;1.00;;;;;;5048190;28;20196;-56
2023/03/12 08:44:27;;;;;;;4.07;2.90;;;6.90;1.00;;;;;;5045465;28;20223;-56
2023/03/12 08:46:53;;;;;;;4.10;2.70;;;7.20;1.00;;;;;;5048466;28;20181;-54
2023/03/12 08:49:20;;;;;;;2.20;2.00;;;7.50;1.00;;;;;;5043879;28;20663;-54
2023/03/12 08:51:46;;;;;;;4.43;2.50;;;7.90;1.00;;;;;;5047773;28;20212;-56
2023/03/12 08:54:11;;;;;;;3.30;2.93;;;7.90;1.00;;;;;;5054499;28;21041;-54
2023/03/12 08:56:40;;;;;;;3.43;2.50;;;7.80;1.00;;;;;;5051609;28;20418;-56
2023/03/12 08:59:10;;;;;;;3.93;2.60;;;7.80;1.00;;;;;;5047866;28;20598;-54
2023/03/12 09:01:35;;;;;;;3.70;2.80;;;7.70;1.00;;;;;;5051504;28;20560;-53
2023/03/12 09:04:03;;;;;;;3.43;2.63;;;7.50;1.00;;;;;;5046556;28;20980;-56
2023/03/12 09:06:28;;;;;;;4.03;2.60;;;7.60;1.00;;;;;;5048911;28;20641;-56
2023/03/12 09:08:54;;;;;;;3.93;2.70;;;7.70;1.00;;;;;;5057493;28;20450;-55
2023/03/12 09:11:20;;;;;;;3.00;2.57;;;8.00;1.00;;;;;;5058977;28;20214;-55
2023/03/12 09:13:46;;;;;;;6.43;2.50;;;8.10;1.00;;;;;;5057352;28;20260;-54
2023/03/12 09:16:11;;;;;;;4.77;2.70;;;8.40;1.00;;;;;;5053887;28;20289;-56
2023/03/12 09:18:37;;;;;;;4.50;2.33;;;8.50;1.00;;;;;;5048684;28;20188;-55
2023/03/12 09:21:03;;;;;;;2.40;2.17;;;8.50;1.00;;;;;;5062639;28;20230;-55
2023/03/12 09:23:28;;;;;;;6.20;2.70;;;8.40;1.00;;;;;;5048952;28;20193;-54
2023/03/12 09:25:56;;;;;;;4.90;2.33;;;8.30;1.00;;;;;;5048378;28;20530;-55
2023/03/12 09:28:22;;;;;;;3.90;2.60;;;8.40;1.00;;;;;;5048981;28;20646;-54
2023/03/12 09:30:47;;;;;;;4.10;2.20;;;8.80;1.00;;;;;;5048685;28;20484;-54
2023/03/12 09:33:17;;;;;;;2.27;1.53;;;9.20;1.00;;;;;;5055098;28;20451;-54
2023/03/12 09:35:43;;;;;;;2.13;1.40;;;9.50;1.00;;;;;;5046348;28;20189;-56
2023/03/12 09:38:13;;;;;;;1.30;1.20;;;9.30;1.00;;;;;;5061325;28;20421;-54
2023/03/12 09:40:42;;;;;;;3.40;1.50;;;9.10;1.00;;;;;;5049116;28;20447;-54
2023/03/12 09:43:32;;;;;;;3.13;1.60;;;8.80;1.00;;;;;;5054684;28;20470;-54
2023/03/12 09:45:59;;;;;;;2.80;1.13;;;8.80;1.00;;;;;;5054513;28;20451;-55
2023/03/12 09:48:32;;;;;;;1.77;1.20;;;8.90;1.00;;;;;;5048133;28;20450;-56
2023/03/12 09:51:04;;;;;;;4.20;1.40;;;9.20;1.00;;;;;;5045987;28;20476;-54
2023/03/12 09:53:57;;;;;;;4.07;1.40;;;9.50;1.00;;;;;;5050372;28;20511;-54
2023/03/12 09:56:25;;;;;;;3.70;1.73;;;9.50;1.00;;;;;;5045442;28;20459;-54
2023/03/12 09:58:53;;;;;;;2.10;1.30;;;9.80;1.00;;;;;;5047975;28;20509;-54
2023/03/12 10:01:36;;;;;;;3.70;1.63;;;9.90;1.00;;;;;;5055271;28;20476;-54
2023/03/12 10:04:17;;;;;;;3.80;1.53;;;9.80;1.00;;;;;;5043934;28;20454;-54
2023/03/12 10:06:59;;;;;;;4.73;1.60;;;9.80;1.00;;;;;;5049137;28;20446;-55
2023/03/12 10:10:06;;;;;;;2.67;1.30;;;10.00;1.00;;;;;;5052446;28;20512;-54
2023/03/12 10:12:52;;;;;;;4.40;1.50;;;9.90;1.00;;;;;;5044085;28;20447;-54
2023/03/12 10:15:37;;;;;;;1.20;1.10;;;9.90;1.00;;;;;;5059834;28;20447;-53
2023/03/12 10:18:25;;;;;;;2.20;1.17;;;10.00;1.00;;;;;;5048799;28;20457;-55
2023/03/12 10:21:11;;;;;;;4.90;1.40;;;9.90;1.00;;;;;;5046459;28;20822;-55
2023/03/12 10:24:06;;;;;;;2.60;1.00;;;9.90;1.00;;;;;;5047900;28;20464;-54
2023/03/12 10:26:53;;;;;;;1.47;0.87;;;9.80;1.00;;;;;;5045520;28;20939;-54
2023/03/12 10:29:38;;;;;;;2.03;0.80;;;9.70;1.00;;;;;;5045665;28;20522;-54
2023/03/12 10:32:09;;;;;;;2.70;1.30;;;9.40;1.00;;;;;;5044531;28;20462;-53
2023/03/12 10:34:45;;;;;;;4.00;1.00;;;9.30;1.00;;;;;;5043603;28;20526;-53
2023/03/12 10:37:15;;;;;;;1.17;0.80;;;9.10;1.00;;;;;;5056039;28;20443;-53
2023/03/12 10:39:41;;;;;;;1.33;0.90;;;9.10;1.00;;;;;;5049035;28;20528;-54
2023/03/12 10:42:17;;;;;;;2.10;1.03;;;9.30;1.00;;;;;;5047356;28;22529;-54
2023/03/12 10:44:46;;;;;;;2.33;1.40;;;9.20;1.00;;;;;;5047796;28;20184;-55
2023/03/12 10:47:26;;;;;;;2.43;1.50;;;9.60;1.00;;;;;;5049642;28;20439;-54
2023/03/12 10:49:52;;;;;;;2.20;1.17;;;9.70;1.00;;;;;;5047491;28;20439;-54
2023/03/12 10:52:22;;;;;;;2.50;1.20;;;10.00;1.00;;;;;;5050344;28;20510;-53
2023/03/12 10:54:50;;;;;;;1.93;1.17;;;10.20;1.00;;;;;;5046618;28;20491;-56
2023/03/12 10:57:16;;;;;;;2.67;1.00;;;10.60;1.00;;;;;;5048579;28;20497;-55
2023/03/12 10:59:47;;;;;;;1.43;1.00;;;11.00;1.00;;;;;;5050704;28;20446;-54
2023/03/12 11:02:29;;;;;;;3.20;1.07;;;11.10;1.00;;;;;;5047070;28;20939;-55
2023/03/12 11:04:55;;;;;;;2.50;0.90;;;11.00;1.00;;;;;;5051337;28;20413;-56
2023/03/12 11:07:30;;;;;;;1.40;1.07;;;10.90;1.00;;;;;;5052965;28;20918;-56
2023/03/12 11:10:05;;;;;;;1.70;1.27;;;11.00;1.00;;;;;;5050699;28;20442;-57
2023/03/12 11:12:30;;;;;;;4.70;1.27;;;11.10;1.00;;;;;;5049651;28;20803;-54
2023/03/12 11:14:57;;;;;;;4.37;1.47;;;11.30;1.00;;;;;;5046301;28;20447;-56
2023/03/12 11:17:26;;;;;;;3.00;1.43;;;11.30;1.00;;;;;;5052265;28;20184;-56
2023/03/12 11:19:52;;;;;;;0.97;0.87;;;11.20;1.00;;;;;;5051634;28;20447;-55
2023/03/12 11:22:30;;;;;;;3.37;1.23;;;11.20;1.00;;;;;;5056966;28;20957;-56
2023/03/12 11:25:03;;;;;;;3.27;1.47;;;11.30;1.00;;;;;;5052610;28;20200;-53
2023/03/12 11:27:44;;;;;;;1.33;0.83;;;11.30;1.00;;;;;;5050754;28;20443;-55
2023/03/12 11:30:22;;;;;;;1.50;0.90;;;11.20;1.00;;;;;;5047029;28;20520;-54
2023/03/12 11:32:49;;;;;;;2.97;1.60;;;11.10;1.00;;;;;;5049616;28;21057;-55
2023/03/12 11:35:19;;;;;;;1.47;1.13;;;11.00;1.00;;;;;;5054662;28;21141;-56
2023/03/12 11:38:06;;;;;;;1.43;0.70;;;11.10;1.00;;;;;;5054444;28;20433;-56
2023/03/12 11:40:44;;;;;;;2.23;1.10;;;11.20;1.00;;;;;;5049636;28;20948;-54
2023/03/12 11:43:56;;;;;;;2.10;1.00;;;11.30;1.00;;;;;;5047345;28;20425;-55
2023/03/12 11:46:47;;;;;;;2.03;1.00;;;11.50;1.00;;;;;;5034201;28;20447;-53
2023/03/12 11:49:37;;;;;;;1.50;1.40;;;11.50;1.00;;;;;;5048082;28;20504;-53
2023/03/12 11:52:26;;;;;;;1.30;1.20;;;11.30;1.00;;;;;;5066160;28;20476;-55
2023/03/12 11:55:10;;;;;;;4.50;1.40;;;11.30;1.00;;;;;;5051600;28;20957;-54
2023/03/12 11:57:47;;;;;;;2.50;1.60;;;11.30;1.00;;;;;;5049755;28;20446;-54
2023/03/12 12:00:20;;;;;;;1.53;1.00;;;11.00;1.00;;;;;;5051575;28;20446;-55
2023/03/12 12:03:04;;;;;;;2.60;1.53;;;11.10;1.00;;;;;;5043577;28;20499;-55
2023/03/12 12:05:36;;;;;;;3.33;1.37;;;11.30;1.00;;;;;;5071774;28;20413;-59
2023/03/12 12:08:22;;;;;;;1.90;1.43;;;11.20;1.00;;;;;;5067251;28;20451;-56
2023/03/12 12:10:57;;;;;;;3.10;1.50;;;11.10;1.00;;;;;;5067122;28;20461;-57
2023/03/12 12:13:25;;;;;;;2.40;1.50;;;11.30;1.00;;;;;;5060957;28;20440;-56
2023/03/12 12:16:19;;;;;;;2.00;1.33;;;11.50;1.00;;;;;;5069071;28;20780;-54
2023/03/12 12:19:19;;;;;;;6.63;1.70;;;11.60;1.00;;;;;;5050014;28;20405;-53
2023/03/12 12:21:51;;;;;;;2.90;1.30;;;11.40;1.00;;;;;;5048363;28;20868;-54
2023/03/12 12:24:23;;;;;;;2.70;1.83;;;11.30;1.00;;;;;;5049309;28;20497;-55
2023/03/12 12:26:54;;;;;;;5.40;1.50;;;11.50;1.00;;;;;;5060697;28;20442;-55
2023/03/12 12:29:42;;;;;;;4.00;2.10;;;11.70;1.00;;;;;;5049604;28;20435;-55
2023/03/12 12:32:14;;;;;;;1.30;1.20;;;11.80;1.00;;;;;;5049770;28;20451;-54
2023/03/12 12:34:43;;;;;;;2.10;1.30;;;11.90;1.00;;;;;;5050847;28;20859;-55
2023/03/12 12:37:47;;;;;;;4.27;1.50;;;11.90;1.00;;;;;;5056790;28;20965;-54
2023/03/12 12:40:25;;;;;;;3.17;1.83;;;11.80;1.00;;;;;;5049625;28;20453;-55
2023/03/12 12:43:05;;;;;;;2.93;1.80;;;11.60;1.00;;;;;;5050780;28;20433;-54
2023/03/12 12:45:31;;;;;;;6.00;2.33;;;11.70;1.00;;;;;;5049049;28;20471;-55
2023/03/12 12:48:07;;;;;;;4.70;2.17;;;11.70;1.00;;;;;;5070883;28;20817;-55
2023/03/12 12:50:38;;;;;;;3.97;1.93;;;11.60;1.00;;;;;;5050934;28;20200;-53
2023/03/12 12:53:25;;;;;;;6.10;2.43;;;11.60;1.00;;;;;;5050458;28;20455;-55
2023/03/12 12:55:54;;;;;;;7.10;2.07;;;11.40;1.00;;;;;;5049278;28;20439;-55
2023/03/12 12:58:25;;;;;;;3.10;1.83;;;11.10;1.00;;;;;;5048909;28;20414;-54
2023/03/12 13:00:55;;;;;;;4.90;2.10;;;10.90;1.00;;;;;;5060137;28;20450;-54
2023/03/12 13:03:24;;;;;;;2.70;2.47;;;10.80;1.00;;;;;;5054131;28;20398;-55
2023/03/12 13:05:58;;;;;;;4.13;2.77;;;10.90;1.00;;;;;;5047101;28;20897;-55
2023/03/12 13:08:38;;;;;;;2.27;2.00;;;10.80;1.00;;;;;;5040228;28;20421;-55
2023/03/12 13:11:15;;;;;;;1.90;1.70;;;10.70;1.00;;;;;;5045069;28;20927;-56
2023/03/12 13:13:47;;;;;;;3.77;1.87;;;10.50;1.00;;;;;;5047540;28;20461;-56
2023/03/12 13:16:20;;;;;;;3.73;2.10;;;10.50;1.00;;;;;;5046741;28;20442;-54